createdAt,value
2019-02-05T00:01:53.431Z,102079.42
2019-02-05T00:04:28.754Z,102071.48
2019-02-05T00:07:00.287Z,102083.51
2019-02-05T00:09:32.858Z,102085.28
2019-02-05T00:12:05.645Z,102086.30
2019-02-05T00:14:40.013Z,102088.62
2019-02-05T00:17:13.498Z,102088.91
2019-02-05T00:19:45.443Z,102078.12
2019-02-05T00:22:17.594Z,102073.69
2019-02-05T00:24:49.737Z,102070.66
2019-02-05T00:27:21.167Z,102078.48
2019-02-05T00:29:56.252Z,102080.63
2019-02-05T00:32:27.245Z,102077.39
2019-02-05T00:34:59.054Z,102073.05
2019-02-05T00:37:29.538Z,102079.35
2019-02-05T00:40:00.628Z,102078.05
2019-02-05T00:42:31.460Z,102078.70
2019-02-05T00:45:02.778Z,102082.93
2019-02-05T00:47:39.007Z,102093.06
2019-02-05T00:50:11.398Z,102089.67
2019-02-05T00:52:44.517Z,102087.44
2019-02-05T00:55:19.068Z,102093.53
2019-02-05T00:57:51.098Z,102082.30
2019-02-05T01:00:27.642Z,102082.41
2019-02-05T01:02:59.286Z,102080.41
2019-02-05T01:05:32.634Z,102080.31
2019-02-05T01:08:07.383Z,102084.64
2019-02-05T01:10:39.401Z,102074.14
2019-02-05T01:13:10.650Z,102077.55
2019-02-05T01:15:44.142Z,102084.77
2019-02-05T01:18:15.084Z,102087.09
2019-02-05T01:20:46.159Z,102088.39
2019-02-05T01:23:17.087Z,102072.05
2019-02-05T01:25:47.354Z,102082.80
2019-02-05T01:28:19.543Z,102093.88
2019-02-05T01:30:52.242Z,102090.45
2019-02-05T01:33:23.300Z,102088.45
2019-02-05T01:36:02.703Z,102086.52
2019-02-05T01:38:35.491Z,102090.85
2019-02-05T01:41:06.163Z,102088.95
2019-02-05T01:43:37.628Z,102084.80
2019-02-05T01:46:12.242Z,102090.64
2019-02-05T01:48:43.277Z,102082.97
2019-02-05T01:51:13.517Z,102086.07
2019-02-05T01:53:45.547Z,102088.66
2019-02-05T01:56:16.907Z,102080.33
2019-02-05T01:58:48.474Z,102084.70
2019-02-05T02:01:25.316Z,102088.38
2019-02-05T02:03:59.543Z,102086.17
2019-02-05T02:06:32.754Z,102094.98
2019-02-05T02:09:06.024Z,102097.01
2019-02-05T02:11:39.347Z,102103.77
2019-02-05T02:14:15.382Z,102102.13
2019-02-05T02:16:54.597Z,102111.89
2019-02-05T02:19:51.956Z,102112.28
2019-02-05T02:22:23.535Z,102111.14
2019-02-05T02:24:55.456Z,102104.59
2019-02-05T02:27:26.952Z,102097.49
2019-02-05T02:29:57.802Z,102103.70
2019-02-05T02:32:29.269Z,102107.26
2019-02-05T02:35:01.807Z,102101.39
2019-02-05T02:37:33.001Z,102102.84
2019-02-05T02:40:06.567Z,102102.72
2019-02-05T02:42:40.462Z,102103.11
2019-02-05T02:45:13.110Z,102098.75
2019-02-05T02:47:48.945Z,102104.96
2019-02-05T02:50:20.948Z,102111.00
2019-02-05T02:52:55.596Z,102103.66
2019-02-05T02:55:30.845Z,102103.68
2019-02-05T02:58:02.945Z,102106.41
2019-02-05T03:00:36.708Z,102101.54
2019-02-05T03:03:11.348Z,102106.03
2019-02-05T03:05:44.330Z,102102.92
2019-02-05T03:08:18.879Z,102106.03
2019-02-05T03:10:50.968Z,102107.34
2019-02-05T03:13:25.104Z,102112.23
2019-02-05T03:15:58.437Z,102106.94
2019-02-05T03:18:35.986Z,102105.23
2019-02-05T03:21:08.231Z,102110.50
2019-02-05T03:23:38.958Z,102111.77
2019-02-05T03:26:11.806Z,102113.14
2019-02-05T03:28:42.189Z,102116.56
2019-02-05T03:31:13.054Z,102123.20
2019-02-05T03:33:46.030Z,102128.53
2019-02-05T03:36:18.640Z,102122.31
2019-02-05T03:38:51.984Z,102128.55
2019-02-05T03:41:25.223Z,102130.27
2019-02-05T03:43:58.380Z,102126.92
2019-02-05T03:46:28.596Z,102123.73
2019-02-05T03:49:06.817Z,102113.41
2019-02-05T03:52:01.389Z,102116.88
2019-02-05T03:54:58.352Z,102121.26
2019-02-05T03:58:06.306Z,102116.91
2019-02-05T04:01:05.252Z,102112.26
2019-02-05T04:04:12.932Z,102112.19
2019-02-05T04:07:12.061Z,102118.36
2019-02-05T04:10:08.505Z,102127.03
2019-02-05T04:13:12.669Z,102125.47
2019-02-05T04:16:08.641Z,102133.41
2019-02-05T04:19:02.582Z,102131.47
2019-02-05T04:22:01.389Z,102123.22
2019-02-05T04:25:01.120Z,102125.57
2019-02-05T04:28:15.667Z,102131.20
2019-02-05T04:31:32.587Z,102130.66
2019-02-05T04:34:45.121Z,102126.36
2019-02-05T04:37:43.390Z,102127.48
2019-02-05T04:40:47.618Z,102122.89
2019-02-05T04:44:08.211Z,102118.16
2019-02-05T04:46:57.089Z,102121.61
2019-02-05T04:49:59.265Z,102125.06
2019-02-05T04:53:19.783Z,102117.14
2019-02-05T04:56:18.376Z,102118.27
2019-02-05T04:59:53.670Z,102120.06
2019-02-05T05:02:57.018Z,102124.09
2019-02-05T05:06:23.699Z,102120.96
2019-02-05T05:09:19.299Z,102124.83
2019-02-05T05:11:57.754Z,102128.21
2019-02-05T05:14:35.183Z,102132.84
2019-02-05T05:17:28.935Z,102139.45
2019-02-05T05:20:03.220Z,102140.88
2019-02-05T05:22:41.969Z,102136.17
2019-02-05T05:25:22.811Z,102148.92
2019-02-05T05:28:09.631Z,102142.80
2019-02-05T05:30:39.565Z,102140.59
2019-02-05T05:33:16.352Z,102144.44
2019-02-05T05:35:51.689Z,102140.88
2019-02-05T05:38:23.726Z,102153.70
2019-02-05T05:40:57.602Z,102149.78
2019-02-05T05:43:30.596Z,102145.58
2019-02-05T05:46:04.669Z,102140.16
2019-02-05T05:48:37.598Z,102144.48
2019-02-05T05:51:14.918Z,102148.17
2019-02-05T05:53:59.858Z,102143.17
2019-02-05T05:56:38.456Z,102146.43
2019-02-05T05:59:13.851Z,102154.40
2019-02-05T06:01:51.364Z,102152.97
2019-02-05T06:04:27.866Z,102159.76
2019-02-05T06:07:06.888Z,102150.26
2019-02-05T06:09:39.871Z,102149.32
2019-02-05T06:12:24.479Z,102158.00
2019-02-05T06:15:02.278Z,102147.98
2019-02-05T06:17:44.850Z,102154.20
2019-02-05T06:20:23.481Z,102154.71
2019-02-05T06:23:26.753Z,102163.59
2019-02-05T06:26:27.794Z,102165.59
2019-02-05T06:28:58.746Z,102162.58
2019-02-05T06:31:34.139Z,102167.10
2019-02-05T06:34:12.455Z,102167.61
2019-02-05T06:36:49.892Z,102165.30
2019-02-05T06:39:30.560Z,102167.69
2019-02-05T06:42:05.748Z,102171.17
2019-02-05T06:44:36.678Z,102175.87
2019-02-05T06:47:09.790Z,102181.55
2019-02-05T06:49:40.773Z,102186.84
2019-02-05T06:52:13.390Z,102188.14
2019-02-05T06:54:45.824Z,102189.55
2019-02-05T06:57:21.737Z,102197.34
2019-02-05T06:59:57.969Z,102187.42
2019-02-05T07:02:57.202Z,102190.92
2019-02-05T07:05:47.979Z,102195.37
2019-02-05T07:08:42.517Z,102209.64
2019-02-05T07:11:16.846Z,102211.31
2019-02-05T07:13:48.507Z,102215.66
2019-02-05T07:16:21.774Z,102219.56
2019-02-05T07:18:54.037Z,102211.56
2019-02-05T07:21:26.273Z,102223.83
2019-02-05T07:24:00.612Z,102229.34
2019-02-05T07:26:33.819Z,102225.72
2019-02-05T07:29:06.627Z,102226.20
2019-02-05T07:31:44.637Z,102233.03
2019-02-05T07:34:35.908Z,102237.88
2019-02-05T07:37:31.551Z,102234.98
2019-02-05T07:40:38.695Z,102240.61
2019-02-05T07:43:11.550Z,102241.00
2019-02-05T07:45:44.070Z,102241.25
2019-02-05T07:48:22.924Z,102250.05
2019-02-05T07:51:01.670Z,102249.38
2019-02-05T07:53:38.959Z,102249.34
2019-02-05T07:56:33.622Z,102252.14
2019-02-05T07:59:11.755Z,102248.39
2019-02-05T08:01:48.810Z,102252.58
2019-02-05T08:04:53.294Z,102253.19
2019-02-05T08:07:32.962Z,102262.20
2019-02-05T08:10:19.423Z,102259.28
2019-02-05T08:13:00.054Z,102267.77
2019-02-05T08:15:35.927Z,102269.88
2019-02-05T08:18:07.721Z,102271.06
2019-02-05T08:20:42.315Z,102275.63
2019-02-05T08:23:20.763Z,102276.77
2019-02-05T08:25:52.856Z,102288.29
2019-02-05T08:28:25.753Z,102287.34
2019-02-05T08:30:58.583Z,102289.72
2019-02-05T08:33:34.186Z,102285.45
2019-02-05T08:39:11.615Z,102287.22
2019-02-05T08:41:49.595Z,102292.64
2019-02-05T08:44:40.092Z,102295.59
2019-02-05T08:47:18.861Z,102303.63
2019-02-05T08:49:53.313Z,102306.21
2019-02-05T08:52:26.582Z,102302.02
2019-02-05T08:55:01.674Z,102306.55
2019-02-05T08:57:35.846Z,102297.70
2019-02-05T09:00:32.850Z,102307.22
2019-02-05T09:03:14.176Z,102311.37
2019-02-05T09:05:50.788Z,102307.13
2019-02-05T09:08:23.123Z,102311.94
2019-02-05T09:10:59.719Z,102312.34
2019-02-05T09:13:31.462Z,102328.29
2019-02-05T09:16:09.308Z,102323.02
2019-02-05T09:18:51.751Z,102322.08
2019-02-05T09:21:25.548Z,102320.92
2019-02-05T09:23:58.209Z,102320.94
2019-02-05T09:26:31.699Z,102323.90
2019-02-05T09:29:17.103Z,102331.48
2019-02-05T09:32:07.938Z,102327.89
2019-02-05T09:34:47.667Z,102328.30
2019-02-05T09:37:22.394Z,102335.42
2019-02-05T09:39:53.624Z,102336.23
2019-02-05T09:42:25.934Z,102335.38
2019-02-05T09:44:56.493Z,102339.52
2019-02-05T09:47:29.276Z,102338.87
2019-02-05T09:50:05.098Z,102340.83
2019-02-05T09:52:36.153Z,102344.89
2019-02-05T09:55:11.090Z,102339.75
2019-02-05T09:57:43.252Z,102337.52
2019-02-05T10:00:22.803Z,102337.97
2019-02-05T10:02:56.740Z,102337.38
2019-02-05T10:05:29.277Z,102337.73
2019-02-05T10:08:00.939Z,102340.70
2019-02-05T10:10:34.962Z,102341.05
2019-02-05T10:13:06.382Z,102350.72
2019-02-05T10:15:40.328Z,102346.81
2019-02-05T10:18:16.235Z,102346.41
2019-02-05T10:20:50.780Z,102348.73
2019-02-05T10:23:25.011Z,102360.74
2019-02-05T10:25:59.722Z,102360.73
2019-02-05T10:28:32.359Z,102352.56
2019-02-05T10:31:07.161Z,102361.73
2019-02-05T10:33:42.677Z,102321.53
2019-02-05T10:36:15.994Z,102364.64
2019-02-05T10:38:55.168Z,102366.73
2019-02-05T10:41:28.696Z,102374.84
2019-02-05T10:44:00.247Z,102371.23
2019-02-05T10:46:32.949Z,102367.88
2019-02-05T10:49:04.096Z,102371.84
2019-02-05T10:52:45.870Z,102364.52
2019-02-05T10:55:45.918Z,102369.91
2019-02-05T11:01:33.674Z,102369.98
2019-02-05T11:04:04.357Z,102365.17
2019-02-05T11:06:43.986Z,102366.65
2019-02-05T11:09:29.976Z,102364.32
2019-02-05T11:12:02.483Z,102357.94
2019-02-05T11:14:34.443Z,102356.72
2019-02-05T11:17:11.575Z,102358.87
2019-02-05T11:19:43.844Z,102361.77
2019-02-05T11:22:14.869Z,102353.95
2019-02-05T11:24:46.299Z,102353.21
2019-02-05T11:27:19.480Z,102356.58
2019-02-05T11:29:54.978Z,102342.09
2019-02-05T11:32:28.192Z,102349.52
2019-02-05T11:35:05.600Z,102350.94
2019-02-05T11:37:42.416Z,102356.20
2019-02-05T11:40:20.331Z,102360.94
2019-02-05T11:42:52.573Z,102357.86
2019-02-05T11:45:27.098Z,102354.98
2019-02-05T11:48:03.818Z,102355.16
2019-02-05T11:50:37.368Z,102348.25
2019-02-05T11:53:10.184Z,102344.26
2019-02-05T11:55:42.321Z,102340.27
2019-02-05T11:58:14.567Z,102338.48
2019-02-05T12:00:55.707Z,102341.20
2019-02-05T12:03:29.279Z,102336.09
2019-02-05T12:06:00.453Z,102346.20
2019-02-05T12:08:33.475Z,102343.49
2019-02-05T12:11:06.122Z,102338.77
2019-02-05T12:13:38.432Z,102341.66
2019-02-05T12:16:12.533Z,102342.36
2019-02-05T12:18:50.929Z,102338.80
2019-02-05T12:21:27.227Z,102336.59
2019-02-05T12:24:03.757Z,102333.84
2019-02-05T12:26:38.806Z,102331.39
2019-02-05T12:29:10.425Z,102333.78
2019-02-05T12:31:45.978Z,102334.20
2019-02-05T12:34:17.860Z,102336.86
2019-02-05T12:36:48.171Z,102339.94
2019-02-05T12:39:26.466Z,102333.72
2019-02-05T12:41:59.845Z,102335.99
2019-02-05T12:44:34.960Z,102334.23
2019-02-05T12:47:08.562Z,102331.16
2019-02-05T12:49:46.856Z,102335.55
2019-02-05T12:52:23.839Z,102333.39
2019-02-05T12:55:12.805Z,102337.34
2019-02-05T12:57:35.416Z,102336.41
2019-02-05T13:00:13.866Z,102332.61
2019-02-05T13:02:46.409Z,102340.89
2019-02-05T13:05:18.154Z,102345.77
2019-02-05T13:07:49.896Z,102337.89
2019-02-05T13:10:29.216Z,102327.74
2019-02-05T13:13:01.084Z,102331.66
2019-02-05T13:15:35.546Z,102326.43
2019-02-05T13:18:09.069Z,102326.41
2019-02-05T13:20:45.864Z,102328.67
2019-02-05T13:23:19.587Z,102322.92
2019-02-05T13:25:57.318Z,102324.72
2019-02-05T13:28:32.146Z,102319.59
2019-02-05T13:31:09.404Z,102324.42
2019-02-05T13:33:49.499Z,102321.01
2019-02-05T13:36:22.781Z,102317.55
2019-02-05T13:38:55.130Z,102312.72
2019-02-05T13:41:31.119Z,102316.81
2019-02-05T13:44:04.417Z,102327.38
2019-02-05T13:46:35.044Z,102326.03
2019-02-05T13:49:06.184Z,102321.17
2019-02-05T13:51:40.831Z,102330.88
2019-02-05T13:54:12.816Z,102337.52
2019-02-05T13:56:45.973Z,102324.31
2019-02-05T13:59:19.216Z,102321.20
2019-02-05T14:01:49.854Z,102319.76
2019-02-05T14:04:26.017Z,102321.64
2019-02-05T14:06:56.892Z,102325.19
2019-02-05T14:09:27.083Z,102325.58
2019-02-05T14:12:01.537Z,102323.34
2019-02-05T14:14:38.337Z,102321.18
2019-02-05T14:17:11.901Z,102322.95
2019-02-05T14:19:45.884Z,102324.33
2019-02-05T14:22:23.730Z,102331.00
2019-02-05T14:24:58.404Z,102318.66
2019-02-05T14:27:29.510Z,102322.64
2019-02-05T14:30:06.754Z,102315.84
2019-02-05T14:32:38.257Z,102321.22
2019-02-05T14:35:12.262Z,102314.61
2019-02-05T14:37:44.837Z,102317.23
2019-02-05T14:40:21.365Z,102314.55
2019-02-05T14:42:51.843Z,102317.27
2019-02-05T14:45:23.422Z,102318.59
2019-02-05T14:47:56.693Z,102312.81
2019-02-05T14:50:30.074Z,102309.32
2019-02-05T14:53:04.710Z,102313.75
2019-02-05T14:55:56.748Z,102319.05
2019-02-05T14:58:29.018Z,102319.54
2019-02-05T15:01:01.121Z,102315.14
2019-02-05T15:03:34.520Z,102319.98
2019-02-05T15:06:07.903Z,102308.47
2019-02-05T15:08:52.502Z,102313.76
2019-02-05T15:11:29.311Z,102318.22
2019-02-05T15:14:01.382Z,102317.23
2019-02-05T15:16:33.516Z,102309.25
2019-02-05T15:19:08.040Z,102309.77
2019-02-05T15:21:46.997Z,102295.22
2019-02-05T15:24:37.939Z,102303.17
2019-02-05T15:27:13.889Z,102301.80
2019-02-05T15:29:51.476Z,102308.89
2019-02-05T15:32:52.073Z,102313.70
2019-02-05T15:35:31.632Z,102311.37
2019-02-05T15:38:06.170Z,102309.62
2019-02-05T15:40:46.951Z,102311.95
2019-02-05T15:43:20.313Z,102321.01
2019-02-05T15:46:12.937Z,102315.94
2019-02-05T15:48:46.597Z,102314.51
2019-02-05T15:51:19.823Z,102311.73
2019-02-05T15:53:54.649Z,102317.45
2019-02-05T15:56:33.030Z,102304.75
2019-02-05T15:59:11.695Z,102310.80
2019-02-05T16:01:47.304Z,102310.09
2019-02-05T16:04:21.405Z,102310.05
2019-02-05T16:06:56.290Z,102318.11
2019-02-05T16:09:27.394Z,102306.69
2019-02-05T16:11:57.547Z,102307.56
2019-02-05T16:14:28.874Z,102310.87
2019-02-05T16:17:00.905Z,102308.36
2019-02-05T16:19:34.762Z,102309.66
2019-02-05T16:22:10.781Z,102317.67
2019-02-05T16:24:43.494Z,102315.44
2019-02-05T16:27:18.219Z,102324.73
2019-02-05T16:29:52.419Z,102319.50
2019-02-05T16:32:28.580Z,102316.84
2019-02-05T16:35:02.042Z,102317.30
2019-02-05T16:37:36.132Z,102320.81
2019-02-05T16:40:13.177Z,102319.98
2019-02-05T16:42:55.817Z,102314.27
2019-02-05T16:45:31.291Z,102316.45
2019-02-05T16:48:10.900Z,102311.09
2019-02-05T16:50:47.586Z,102304.32
2019-02-05T16:53:18.928Z,102313.14
2019-02-05T16:55:51.534Z,102312.83
2019-02-05T16:58:27.705Z,102307.93
2019-02-05T17:00:58.644Z,102304.39
2019-02-05T17:03:30.847Z,102310.17
2019-02-05T17:07:07.269Z,102307.02
2019-02-05T17:10:57.968Z,102311.78
2019-02-05T17:14:20.004Z,102309.88
2019-02-05T17:16:52.684Z,102309.66
2019-02-05T17:19:32.492Z,102310.58
2019-02-05T17:22:20.442Z,102319.84
2019-02-05T17:29:33.720Z,102313.72
2019-02-05T17:33:14.137Z,102316.17
2019-02-05T17:36:35.268Z,102310.53
2019-02-05T17:43:24.742Z,102315.75
2019-02-05T17:46:43.113Z,102316.23
2019-02-05T17:50:24.272Z,102312.41
2019-02-05T17:53:37.915Z,102310.95
2019-02-05T17:56:12.907Z,102317.40
2019-02-05T17:58:50.988Z,102308.57
2019-02-05T18:01:26.386Z,102300.72
2019-02-05T18:03:59.281Z,102305.67
2019-02-05T18:10:36.361Z,102300.80
2019-02-05T18:13:43.888Z,102304.32
2019-02-05T18:19:59.814Z,102298.23
2019-02-05T18:22:54.791Z,102305.97
2019-02-05T18:26:14.306Z,102310.31
2019-02-05T18:33:26.632Z,102310.98
2019-02-05T18:36:49.733Z,102300.69
2019-02-05T18:39:23.323Z,102300.89
2019-02-05T18:41:53.594Z,102292.61
2019-02-05T18:44:24.537Z,102289.14
2019-02-05T18:46:55.857Z,102288.22
2019-02-05T18:49:38.832Z,102290.66
2019-02-05T18:52:30.265Z,102290.52
2019-02-05T18:58:13.292Z,102288.42
2019-02-05T19:00:45.592Z,102280.84
2019-02-05T19:03:17.640Z,102283.98
2019-02-05T19:05:49.333Z,102288.03
2019-02-05T19:08:22.548Z,102288.47
2019-02-05T19:10:53.584Z,102279.67
2019-02-05T19:13:24.904Z,102280.01
2019-02-05T19:15:56.157Z,102278.80
2019-02-05T19:18:26.739Z,102276.55
2019-02-05T19:20:59.853Z,102278.62
2019-02-05T19:23:34.455Z,102285.20
2019-02-05T19:26:28.574Z,102282.59
2019-02-05T19:28:59.309Z,102280.84
2019-02-05T19:31:35.689Z,102271.57
2019-02-05T19:34:07.700Z,102282.51
2019-02-05T19:36:39.360Z,102279.95
2019-02-05T19:39:11.119Z,102274.30
2019-02-05T19:42:16.008Z,102267.20
2019-02-05T19:48:29.280Z,102266.33
2019-02-05T19:51:12.795Z,102266.39
2019-02-05T19:54:03.985Z,102257.89
2019-02-05T20:00:49.275Z,102245.91
2019-02-05T20:03:20.354Z,102241.07
2019-02-05T20:05:51.796Z,102238.30
2019-02-05T20:08:26.797Z,102237.45
2019-02-05T20:10:56.992Z,102232.28
2019-02-05T20:13:39.963Z,102241.09
2019-02-05T20:16:07.711Z,102242.05
2019-02-05T20:19:00.844Z,102249.08
2019-02-05T20:21:32.878Z,102246.90
2019-02-05T20:24:07.369Z,102254.00
2019-02-05T20:26:41.374Z,102250.46
2019-02-05T20:29:12.284Z,102247.97
2019-02-05T20:31:45.003Z,102246.38
2019-02-05T20:34:15.501Z,102250.22
2019-02-05T20:36:50.531Z,102250.20
2019-02-05T20:39:24.030Z,102251.17
2019-02-05T20:41:57.300Z,102250.28
2019-02-05T20:44:32.522Z,102246.58
2019-02-05T20:47:03.540Z,102239.95
2019-02-05T20:49:33.734Z,102250.11
2019-02-05T20:52:04.627Z,102242.10
2019-02-05T20:54:37.514Z,102234.50
2019-02-05T20:57:11.943Z,102244.47
2019-02-05T20:59:44.111Z,102244.86
2019-02-05T21:02:29.179Z,102248.66
2019-02-05T21:05:04.067Z,102241.19
2019-02-05T21:07:37.847Z,102251.83
2019-02-05T21:10:12.585Z,102244.86
2019-02-05T21:12:49.583Z,102251.88
2019-02-05T21:15:25.852Z,102250.03
2019-02-05T21:17:56.310Z,102246.14
2019-02-05T21:20:31.367Z,102247.70
2019-02-05T21:23:01.529Z,102236.80
2019-02-05T21:25:40.777Z,102242.73
2019-02-05T21:28:22.694Z,102250.70
2019-02-05T21:31:13.224Z,102243.30
2019-02-05T21:33:51.913Z,102237.36
2019-02-05T21:36:26.462Z,102240.28
2019-02-05T21:39:01.350Z,102242.50
2019-02-05T21:41:36.675Z,102250.59
2019-02-05T21:44:10.489Z,102250.14
2019-02-05T21:46:45.973Z,102251.16
2019-02-05T21:49:17.190Z,102251.52
2019-02-05T21:51:57.914Z,102253.28
2019-02-05T21:54:33.064Z,102250.75
2019-02-05T21:57:05.856Z,102246.81
2019-02-05T21:59:38.695Z,102246.26
2019-02-05T22:02:10.495Z,102251.48
2019-02-05T22:04:44.244Z,102253.70
2019-02-05T22:07:15.962Z,102251.43
2019-02-05T22:09:48.963Z,102256.70
2019-02-05T22:12:21.975Z,102251.11
2019-02-05T22:14:54.234Z,102243.98
2019-02-05T22:17:28.384Z,102238.15
2019-02-05T22:20:01.008Z,102239.42
2019-02-05T22:22:32.357Z,102246.81
2019-02-05T22:25:02.994Z,102235.75
2019-02-05T22:27:36.969Z,102242.00
2019-02-05T22:30:16.980Z,102233.14
2019-02-05T22:32:50.687Z,102234.50
2019-02-05T22:35:23.037Z,102239.81
2019-02-05T22:37:57.234Z,102239.31
2019-02-05T22:40:28.608Z,102228.56
2019-02-05T22:43:05.786Z,102235.15
2019-02-05T22:45:42.925Z,102237.76
2019-02-05T22:48:15.141Z,102229.49
2019-02-05T22:50:46.513Z,102222.80
2019-02-05T22:53:19.498Z,102226.19
2019-02-05T22:55:53.349Z,102221.30
2019-02-05T22:58:33.583Z,102220.37
2019-02-05T23:01:52.187Z,102223.73
2019-02-05T23:04:59.058Z,102216.08
2019-02-05T23:07:34.084Z,102211.32
2019-02-05T23:10:40.451Z,102207.44
2019-02-05T23:13:16.218Z,102217.61
2019-02-05T23:15:50.375Z,102218.33
2019-02-05T23:18:26.148Z,102226.05
2019-02-05T23:20:58.438Z,102220.25
2019-02-05T23:23:31.502Z,102228.70
2019-02-05T23:26:04.297Z,102229.09
2019-02-05T23:28:38.555Z,102228.45
2019-02-05T23:31:10.779Z,102227.27
2019-02-05T23:33:45.141Z,102221.30
2019-02-05T23:36:16.916Z,102219.85
2019-02-05T23:38:48.903Z,102225.16
2019-02-05T23:41:21.566Z,102234.66
2019-02-05T23:44:00.013Z,102228.38
2019-02-05T23:46:32.147Z,102231.53
2019-02-05T23:49:08.575Z,102233.86
2019-02-05T23:51:41.841Z,102228.25
2019-02-05T23:54:12.777Z,102226.45
2019-02-05T23:56:49.529Z,102229.48
2019-02-05T23:59:36.138Z,102234.55
